sensor_id;sensor_type;location;lat;lon;timestamp;pressure;altitude;pressure_sealevel;temperature;humidity
61026;BME280;46911;32.650;-16.902;2023-08-20T00:00:05;101666.53;;;24.97;77.75
61026;BME280;46911;32.650;-16.902;2023-08-20T00:02:15;101682.56;;;25.00;77.51
61026;BME280;46911;32.650;-16.902;2023-08-20T00:04:20;101677.00;;;24.85;77.63
61026;BME280;46911;32.650;-16.902;2023-08-20T00:06:22;101677.50;;;24.88;77.69
61026;BME280;46911;32.650;-16.902;2023-08-20T00:08:26;101680.22;;;24.88;77.88
61026;BME280;46911;32.650;-16.902;2023-08-20T00:10:27;101675.78;;;24.87;78.04
61026;BME280;46911;32.650;-16.902;2023-08-20T00:12:28;101667.59;;;24.87;77.92
61026;BME280;46911;32.650;-16.902;2023-08-20T00:15:03;101657.00;;;24.93;77.90
61026;BME280;46911;32.650;-16.902;2023-08-20T00:17:07;101648.47;;;24.96;78.04
61026;BME280;46911;32.650;-16.902;2023-08-20T00:19:11;101631.75;;;24.90;78.19
61026;BME280;46911;32.650;-16.902;2023-08-20T00:21:14;101661.09;;;24.97;78.09
61026;BME280;46911;32.650;-16.902;2023-08-20T00:23:15;101656.19;;;24.92;77.94
61026;BME280;46911;32.650;-16.902;2023-08-20T00:25:19;101668.06;;;24.99;78.02
61026;BME280;46911;32.650;-16.902;2023-08-20T00:27:22;101659.19;;;24.97;78.22
61026;BME280;46911;32.650;-16.902;2023-08-20T00:29:23;101643.00;;;24.96;78.35
61026;BME280;46911;32.650;-16.902;2023-08-20T00:31:24;101651.69;;;24.99;78.02
61026;BME280;46911;32.650;-16.902;2023-08-20T00:33:28;101645.88;;;25.02;78.24
61026;BME280;46911;32.650;-16.902;2023-08-20T00:35:29;101655.28;;;25.00;78.25
61026;BME280;46911;32.650;-16.902;2023-08-20T00:37:31;101639.94;;;24.90;78.35
61026;BME280;46911;32.650;-16.902;2023-08-20T00:39:34;101649.34;;;24.96;78.57
61026;BME280;46911;32.650;-16.902;2023-08-20T00:41:35;101636.38;;;24.90;78.47
61026;BME280;46911;32.650;-16.902;2023-08-20T00:43:38;101628.75;;;24.85;78.57
61026;BME280;46911;32.650;-16.902;2023-08-20T00:45:41;101630.59;;;24.85;78.71
61026;BME280;46911;32.650;-16.902;2023-08-20T00:47:42;101613.91;;;24.80;78.78
61026;BME280;46911;32.650;-16.902;2023-08-20T00:49:50;101627.22;;;24.83;78.89
61026;BME280;46911;32.650;-16.902;2023-08-20T00:51:54;101640.00;;;24.82;78.85
61026;BME280;46911;32.650;-16.902;2023-08-20T00:53:58;101658.91;;;24.84;79.33
61026;BME280;46911;32.650;-16.902;2023-08-20T00:55:59;101670.84;;;24.91;78.73
61026;BME280;46911;32.650;-16.902;2023-08-20T00:58:03;101681.09;;;24.81;80.01
61026;BME280;46911;32.650;-16.902;2023-08-20T01:00:07;101679.06;;;24.83;79.72
61026;BME280;46911;32.650;-16.902;2023-08-20T01:02:11;101663.88;;;24.80;80.32
61026;BME280;46911;32.650;-16.902;2023-08-20T01:04:14;101671.53;;;24.85;80.57
61026;BME280;46911;32.650;-16.902;2023-08-20T01:06:39;101674.25;;;24.85;80.27
61026;BME280;46911;32.650;-16.902;2023-08-20T01:08:45;101668.47;;;24.80;80.35
61026;BME280;46911;32.650;-16.902;2023-08-20T01:10:57;101675.59;;;24.89;79.63
61026;BME280;46911;32.650;-16.902;2023-08-20T01:13:00;101691.66;;;24.92;79.08
61026;BME280;46911;32.650;-16.902;2023-08-20T01:15:01;101688.41;;;24.88;78.76
61026;BME280;46911;32.650;-16.902;2023-08-20T01:17:02;101702.72;;;24.99;79.00
61026;BME280;46911;32.650;-16.902;2023-08-20T01:19:04;101686.84;;;24.94;78.50
61026;BME280;46911;32.650;-16.902;2023-08-20T01:21:24;101670.28;;;24.96;78.42
61026;BME280;46911;32.650;-16.902;2023-08-20T01:28:27;101666.88;;;25.02;77.28
61026;BME280;46911;32.650;-16.902;2023-08-20T01:30:28;101665.34;;;24.99;77.24
61026;BME280;46911;32.650;-16.902;2023-08-20T01:32:35;101650.69;;;25.00;77.05
61026;BME280;46911;32.650;-16.902;2023-08-20T01:34:39;101639.75;;;25.00;77.08
61026;BME280;46911;32.650;-16.902;2023-08-20T01:36:44;101631.91;;;24.97;76.71
61026;BME280;46911;32.650;-16.902;2023-08-20T01:38:45;101639.25;;;24.97;77.85
61026;BME280;46911;32.650;-16.902;2023-08-20T01:40:49;101637.06;;;24.92;77.56
61026;BME280;46911;32.650;-16.902;2023-08-20T01:42:50;101655.31;;;24.92;77.59
61026;BME280;46911;32.650;-16.902;2023-08-20T01:44:51;101663.16;;;24.86;77.86
61026;BME280;46911;32.650;-16.902;2023-08-20T01:46:55;101658.91;;;24.84;78.16
61026;BME280;46911;32.650;-16.902;2023-08-20T01:48:56;101654.50;;;24.83;78.50
61026;BME280;46911;32.650;-16.902;2023-08-20T01:50:57;101664.06;;;24.79;78.85
61026;BME280;46911;32.650;-16.902;2023-08-20T01:52:58;101661.16;;;24.80;79.36
61026;BME280;46911;32.650;-16.902;2023-08-20T01:55:01;101646.31;;;24.74;79.75
61026;BME280;46911;32.650;-16.902;2023-08-20T01:57:05;101653.47;;;24.76;80.10
61026;BME280;46911;32.650;-16.902;2023-08-20T01:59:10;101657.22;;;24.74;80.73
61026;BME280;46911;32.650;-16.902;2023-08-20T02:01:14;101659.66;;;24.69;80.89
61026;BME280;46911;32.650;-16.902;2023-08-20T02:03:17;101660.16;;;24.65;80.80
61026;BME280;46911;32.650;-16.902;2023-08-20T02:05:21;101659.63;;;24.61;81.33
61026;BME280;46911;32.650;-16.902;2023-08-20T02:07:22;101658.44;;;24.55;80.79
61026;BME280;46911;32.650;-16.902;2023-08-20T02:09:23;101651.28;;;24.54;80.85
61026;BME280;46911;32.650;-16.902;2023-08-20T02:11:25;101651.28;;;24.54;80.78
61026;BME280;46911;32.650;-16.902;2023-08-20T02:13:25;101651.28;;;24.54;80.61
61026;BME280;46911;32.650;-16.902;2023-08-20T02:15:31;101659.66;;;24.53;80.58
61026;BME280;46911;32.650;-16.902;2023-08-20T02:17:32;101661.69;;;24.59;80.42
61026;BME280;46911;32.650;-16.902;2023-08-20T02:19:36;101650.97;;;24.57;80.39
61026;BME280;46911;32.650;-16.902;2023-08-20T02:21:39;101646.34;;;24.58;80.39
61026;BME280;46911;32.650;-16.902;2023-08-20T02:23:40;101625.22;;;24.52;80.63
61026;BME280;46911;32.650;-16.902;2023-08-20T02:25:43;101637.31;;;24.57;80.60
61026;BME280;46911;32.650;-16.902;2023-08-20T02:27:44;101633.53;;;24.58;80.43
61026;BME280;46911;32.650;-16.902;2023-08-20T02:29:48;101635.25;;;24.60;80.71
61026;BME280;46911;32.650;-16.902;2023-08-20T02:31:49;101629.63;;;24.61;80.07
61026;BME280;46911;32.650;-16.902;2023-08-20T02:33:51;101633.22;;;24.62;80.00
61026;BME280;46911;32.650;-16.902;2023-08-20T02:35:54;101625.72;;;24.55;79.89
61026;BME280;46911;32.650;-16.902;2023-08-20T02:37:56;101621.97;;;24.56;79.91
61026;BME280;46911;32.650;-16.902;2023-08-20T02:39:57;101617.53;;;24.55;80.04
61026;BME280;46911;32.650;-16.902;2023-08-20T02:42:02;101622.47;;;24.60;79.99
61026;BME280;46911;32.650;-16.902;2023-08-20T02:44:03;101602.19;;;24.54;80.35
61026;BME280;46911;32.650;-16.902;2023-08-20T02:46:04;101602.03;;;24.56;80.13
61026;BME280;46911;32.650;-16.902;2023-08-20T02:48:05;101605.59;;;24.56;80.45
61026;BME280;46911;32.650;-16.902;2023-08-20T02:50:07;101622.47;;;24.60;79.93
61026;BME280;46911;32.650;-16.902;2023-08-20T02:52:09;101623.00;;;24.55;79.96
61026;BME280;46911;32.650;-16.902;2023-08-20T02:54:09;101616.69;;;24.55;80.05
61026;BME280;46911;32.650;-16.902;2023-08-20T02:56:14;101618.56;;;24.54;80.19
61026;BME280;46911;32.650;-16.902;2023-08-20T02:58:15;101602.72;;;24.50;80.73
61026;BME280;46911;32.650;-16.902;2023-08-20T03:00:16;101583.63;;;24.50;80.39
61026;BME280;46911;32.650;-16.902;2023-08-20T03:02:17;101571.88;;;24.49;80.33
61026;BME280;46911;32.650;-16.902;2023-08-20T03:04:23;101572.38;;;24.53;79.84
61026;BME280;46911;32.650;-16.902;2023-08-20T03:06:23;101564.00;;;24.54;77.79
61026;BME280;46911;32.650;-16.902;2023-08-20T03:08:24;101572.56;;;24.51;77.30
61026;BME280;46911;32.650;-16.902;2023-08-20T03:10:27;101567.63;;;24.47;77.11
61026;BME280;46911;32.650;-16.902;2023-08-20T03:12:28;101552.47;;;24.44;77.22
61026;BME280;46911;32.650;-16.902;2023-08-20T03:14:31;101562.34;;;24.45;76.65
61026;BME280;46911;32.650;-16.902;2023-08-20T03:16:32;101562.34;;;24.45;75.94
61026;BME280;46911;32.650;-16.902;2023-08-20T03:18:33;101570.69;;;24.44;76.14
61026;BME280;46911;32.650;-16.902;2023-08-20T03:20:37;101574.94;;;24.46;75.96
61026;BME280;46911;32.650;-16.902;2023-08-20T03:22:38;101578.03;;;24.43;76.03
61026;BME280;46911;32.650;-16.902;2023-08-20T03:24:39;101584.69;;;24.40;78.44
61026;BME280;46911;32.650;-16.902;2023-08-20T03:26:42;101588.44;;;24.39;77.96
61026;BME280;46911;32.650;-16.902;2023-08-20T03:28:43;101602.03;;;24.48;79.00
61026;BME280;46911;32.650;-16.902;2023-08-20T03:30:44;101607.19;;;24.43;79.81
61026;BME280;46911;32.650;-16.902;2023-08-20T03:32:48;101618.72;;;24.53;80.11
61026;BME280;46911;32.650;-16.902;2023-08-20T03:34:53;101608.38;;;24.48;80.48
61026;BME280;46911;32.650;-16.902;2023-08-20T03:36:56;101613.63;;;24.50;80.69
61026;BME280;46911;32.650;-16.902;2023-08-20T03:39:01;101615.53;;;24.49;80.88
61026;BME280;46911;32.650;-16.902;2023-08-20T03:41:06;101633.06;;;24.63;79.96
61026;BME280;46911;32.650;-16.902;2023-08-20T03:43:10;101625.91;;;24.62;80.19
61026;BME280;46911;32.650;-16.902;2023-08-20T03:45:11;101620.25;;;24.72;80.37
61026;BME280;46911;32.650;-16.902;2023-08-20T03:47:12;101624.19;;;24.69;80.36
61026;BME280;46911;32.650;-16.902;2023-08-20T03:49:13;101627.25;;;24.66;80.32
61026;BME280;46911;32.650;-16.902;2023-08-20T03:51:14;101628.44;;;24.64;80.08
61026;BME280;46911;32.650;-16.902;2023-08-20T03:53:18;101612.94;;;24.56;79.81
61026;BME280;46911;32.650;-16.902;2023-08-20T03:55:21;101624.53;;;24.58;79.60
61026;BME280;46911;32.650;-16.902;2023-08-20T03:57:27;101583.84;;;24.40;77.21
61026;BME280;46911;32.650;-16.902;2023-08-20T03:59:28;101605.28;;;24.51;74.52
61026;BME280;46911;32.650;-16.902;2023-08-20T04:01:29;101598.28;;;24.49;73.04
61026;BME280;46911;32.650;-16.902;2023-08-20T04:03:32;101595.91;;;24.54;72.42
61026;BME280;46911;32.650;-16.902;2023-08-20T04:05:37;101585.53;;;24.49;71.31
61026;BME280;46911;32.650;-16.902;2023-08-20T04:07:38;101577.69;;;24.46;71.53
61026;BME280;46911;32.650;-16.902;2023-08-20T04:09:46;101581.56;;;24.52;71.07
61026;BME280;46911;32.650;-16.902;2023-08-20T04:11:47;101585.16;;;24.52;70.56
61026;BME280;46911;32.650;-16.902;2023-08-20T04:13:51;101568.50;;;24.39;69.52
61026;BME280;46911;32.650;-16.902;2023-08-20T04:15:54;101583.31;;;24.45;69.54
61026;BME280;46911;32.650;-16.902;2023-08-20T04:17:55;101572.22;;;24.46;69.88
61026;BME280;46911;32.650;-16.902;2023-08-20T04:19:56;101560.28;;;24.47;69.96
61026;BME280;46911;32.650;-16.902;2023-08-20T04:21:57;101555.03;;;24.46;70.00
61026;BME280;46911;32.650;-16.902;2023-08-20T04:23:58;101547.69;;;24.46;69.47
61026;BME280;46911;32.650;-16.902;2023-08-20T04:25:59;101556.72;;;24.47;69.38
61026;BME280;46911;32.650;-16.902;2023-08-20T04:28:01;101559.59;;;24.45;69.93
61026;BME280;46911;32.650;-16.902;2023-08-20T04:30:02;101556.41;;;24.42;70.13
61026;BME280;46911;32.650;-16.902;2023-08-20T04:32:03;101541.41;;;24.37;70.49
61026;BME280;46911;32.650;-16.902;2023-08-20T04:34:07;101552.50;;;24.36;70.99
61026;BME280;46911;32.650;-16.902;2023-08-20T04:36:15;101544.19;;;24.29;70.99
61026;BME280;46911;32.650;-16.902;2023-08-20T04:38:18;101536.97;;;24.36;70.70
61026;BME280;46911;32.650;-16.902;2023-08-20T04:40:19;101535.31;;;24.27;69.61
61026;BME280;46911;32.650;-16.902;2023-08-20T04:42:20;101537.84;;;24.29;69.60
61026;BME280;46911;32.650;-16.902;2023-08-20T04:44:27;101524.41;;;24.27;70.01
61026;BME280;46911;32.650;-16.902;2023-08-20T04:46:30;101531.56;;;24.28;69.88
61026;BME280;46911;32.650;-16.902;2023-08-20T04:48:30;101520.31;;;24.23;68.10
61026;BME280;46911;32.650;-16.902;2023-08-20T04:50:31;101510.97;;;24.17;67.25
61026;BME280;46911;32.650;-16.902;2023-08-20T04:52:33;101517.41;;;24.24;67.05
61026;BME280;46911;32.650;-16.902;2023-08-20T04:54:37;101517.25;;;24.26;66.18
61026;BME280;46911;32.650;-16.902;2023-08-20T04:56:39;101521.00;;;24.25;65.59
61026;BME280;46911;32.650;-16.902;2023-08-20T04:58:40;101517.09;;;24.19;65.49
61026;BME280;46911;32.650;-16.902;2023-08-20T05:00:44;101532.91;;;24.32;67.81
61026;BME280;46911;32.650;-16.902;2023-08-20T05:02:48;101539.19;;;24.33;69.06
61026;BME280;46911;32.650;-16.902;2023-08-20T05:04:54;101555.72;;;24.39;71.11
61026;BME280;46911;32.650;-16.902;2023-08-20T05:06:59;101558.94;;;24.43;71.94
61026;BME280;46911;32.650;-16.902;2023-08-20T05:08:59;101571.03;;;24.49;77.74
61026;BME280;46911;32.650;-16.902;2023-08-20T05:11:04;101580.59;;;24.45;79.24
61026;BME280;46911;32.650;-16.902;2023-08-20T05:13:05;101580.94;;;24.42;79.27
61026;BME280;46911;32.650;-16.902;2023-08-20T05:15:06;101592.88;;;24.40;80.92
61026;BME280;46911;32.650;-16.902;2023-08-20T05:17:07;101594.09;;;24.30;81.27
61026;BME280;46911;32.650;-16.902;2023-08-20T05:19:08;101605.84;;;24.30;81.69
61026;BME280;46911;32.650;-16.902;2023-08-20T05:21:09;101617.78;;;24.29;81.31
61026;BME280;46911;32.650;-16.902;2023-08-20T05:23:14;101632.44;;;24.28;81.23
61026;BME280;46911;32.650;-16.902;2023-08-20T05:25:18;101643.34;;;24.28;81.36
61026;BME280;46911;32.650;-16.902;2023-08-20T05:27:20;101639.94;;;24.26;81.34
61026;BME280;46911;32.650;-16.902;2023-08-20T05:29:24;101632.75;;;24.25;80.38
61026;BME280;46911;32.650;-16.902;2023-08-20T05:31:25;101638.22;;;24.25;79.67
61026;BME280;46911;32.650;-16.902;2023-08-20T05:33:29;101644.03;;;24.22;76.98
61026;BME280;46911;32.650;-16.902;2023-08-20T05:35:30;101642.13;;;24.22;75.77
61026;BME280;46911;32.650;-16.902;2023-08-20T05:37:33;101635.84;;;24.22;74.96
61026;BME280;46911;32.650;-16.902;2023-08-20T05:39:41;101632.28;;;24.21;74.42
61026;BME280;46911;32.650;-16.902;2023-08-20T05:41:43;101636.34;;;24.26;73.47
61026;BME280;46911;32.650;-16.902;2023-08-20T05:43:44;101638.22;;;24.33;74.83
61026;BME280;46911;32.650;-16.902;2023-08-20T05:45:47;101643.84;;;24.40;75.94
61026;BME280;46911;32.650;-16.902;2023-08-20T05:47:53;101632.78;;;24.33;77.42
61026;BME280;46911;32.650;-16.902;2023-08-20T05:49:58;101630.34;;;24.38;77.88
61026;BME280;46911;32.650;-16.902;2023-08-20T05:52:01;101629.34;;;24.31;77.82
61026;BME280;46911;32.650;-16.902;2023-08-20T05:54:06;101632.09;;;24.31;75.77
61026;BME280;46911;32.650;-16.902;2023-08-20T05:56:09;101628.84;;;24.19;75.47
61026;BME280;46911;32.650;-16.902;2023-08-20T05:58:10;101636.53;;;24.16;73.52
61026;BME280;46911;32.650;-16.902;2023-08-20T06:00:11;101639.09;;;24.09;72.37
61026;BME280;46911;32.650;-16.902;2023-08-20T06:02:18;101636.38;;;24.01;71.04
61026;BME280;46911;32.650;-16.902;2023-08-20T06:04:19;101635.00;;;23.97;69.51
61026;BME280;46911;32.650;-16.902;2023-08-20T06:06:21;101641.28;;;23.89;67.40
61026;BME280;46911;32.650;-16.902;2023-08-20T06:08:22;101634.47;;;23.85;66.43
61026;BME280;46911;32.650;-16.902;2023-08-20T06:10:25;101636.00;;;23.79;65.85
61026;BME280;46911;32.650;-16.902;2023-08-20T06:12:29;101632.09;;;23.73;65.22
61026;BME280;46911;32.650;-16.902;2023-08-20T06:14:29;101603.47;;;23.61;65.08
61026;BME280;46911;32.650;-16.902;2023-08-20T06:16:33;101609.41;;;23.65;64.93
61026;BME280;46911;32.650;-16.902;2023-08-20T06:18:34;101618.47;;;23.65;64.66
61026;BME280;46911;32.650;-16.902;2023-08-20T06:20:37;101629.72;;;23.70;64.95
61026;BME280;46911;32.650;-16.902;2023-08-20T06:22:40;101622.38;;;23.71;65.61
61026;BME280;46911;32.650;-16.902;2023-08-20T06:24:43;101616.41;;;23.67;67.56
61026;BME280;46911;32.650;-16.902;2023-08-20T06:26:44;101623.38;;;23.70;68.60
61026;BME280;46911;32.650;-16.902;2023-08-20T06:28:46;101611.47;;;23.63;69.32
61026;BME280;46911;32.650;-16.902;2023-08-20T06:30:49;101628.16;;;23.68;69.87
61026;BME280;46911;32.650;-16.902;2023-08-20T06:32:52;101637.53;;;23.65;69.40
61026;BME280;46911;32.650;-16.902;2023-08-20T06:34:53;101622.19;;;23.64;69.05
61026;BME280;46911;32.650;-16.902;2023-08-20T06:36:56;101616.75;;;23.64;67.99
61026;BME280;46911;32.650;-16.902;2023-08-20T06:38:59;101596.81;;;23.47;65.92
61026;BME280;46911;32.650;-16.902;2023-08-20T06:41:02;101620.31;;;23.65;63.44
61026;BME280;46911;32.650;-16.902;2023-08-20T06:43:06;101618.78;;;23.62;62.76
61026;BME280;46911;32.650;-16.902;2023-08-20T06:45:09;101624.56;;;23.67;61.42
61026;BME280;46911;32.650;-16.902;2023-08-20T06:47:10;101614.69;;;23.66;61.24
61026;BME280;46911;32.650;-16.902;2023-08-20T06:49:12;101602.97;;;23.66;59.88
61026;BME280;46911;32.650;-16.902;2023-08-20T06:51:20;101592.91;;;23.66;59.34
61026;BME280;46911;32.650;-16.902;2023-08-20T06:53:26;101589.16;;;23.67;59.06
61026;BME280;46911;32.650;-16.902;2023-08-20T06:55:27;101587.13;;;23.69;59.21
61026;BME280;46911;32.650;-16.902;2023-08-20T06:57:33;101590.53;;;23.71;59.43
61026;BME280;46911;32.650;-16.902;2023-08-20T06:59:36;101580.69;;;23.70;57.81
61026;BME280;46911;32.650;-16.902;2023-08-20T07:01:37;101587.78;;;23.80;57.09
61026;BME280;46911;32.650;-16.902;2023-08-20T07:03:40;101585.94;;;23.88;56.19
61026;BME280;46911;32.650;-16.902;2023-08-20T07:05:41;101586.66;;;23.99;54.64
61026;BME280;46911;32.650;-16.902;2023-08-20T07:07:42;101589.53;;;24.05;54.47
61026;BME280;46911;32.650;-16.902;2023-08-20T07:09:43;101578.63;;;24.05;54.45
61026;BME280;46911;32.650;-16.902;2023-08-20T07:11:44;101600.94;;;24.17;54.00
61026;BME280;46911;32.650;-16.902;2023-08-20T07:13:49;101601.78;;;24.18;54.11
61026;BME280;46911;32.650;-16.902;2023-08-20T07:15:51;101609.59;;;24.29;54.27
61026;BME280;46911;32.650;-16.902;2023-08-20T07:17:54;101608.06;;;24.35;54.12
61026;BME280;46911;32.650;-16.902;2023-08-20T07:19:57;101612.97;;;24.39;54.23
61026;BME280;46911;32.650;-16.902;2023-08-20T07:22:00;101622.19;;;24.47;53.62
61026;BME280;46911;32.650;-16.902;2023-08-20T07:24:01;101625.06;;;24.53;54.12
61026;BME280;46911;32.650;-16.902;2023-08-20T07:26:06;101628.78;;;24.61;54.16
61026;BME280;46911;32.650;-16.902;2023-08-20T07:28:08;101621.44;;;24.61;54.83
61026;BME280;46911;32.650;-16.902;2023-08-20T07:30:09;101627.22;;;24.74;54.90
61026;BME280;46911;32.650;-16.902;2023-08-20T07:32:10;101611.53;;;24.77;54.39
61026;BME280;46911;32.650;-16.902;2023-08-20T07:34:13;101621.03;;;24.89;53.73
61026;BME280;46911;32.650;-16.902;2023-08-20T07:36:15;101606.38;;;24.90;53.31
61026;BME280;46911;32.650;-16.902;2023-08-20T07:38:19;101607.34;;;24.97;51.88
61026;BME280;46911;32.650;-16.902;2023-08-20T07:40:25;101609.69;;;25.09;52.29
61026;BME280;46911;32.650;-16.902;2023-08-20T07:42:29;101606.53;;;25.20;52.22
61026;BME280;46911;32.650;-16.902;2023-08-20T07:44:30;101601.75;;;25.22;51.79
61026;BME280;46911;32.650;-16.902;2023-08-20T07:46:34;101600.19;;;25.28;51.95
61026;BME280;46911;32.650;-16.902;2023-08-20T07:48:42;101594.19;;;25.32;52.15
61026;BME280;46911;32.650;-16.902;2023-08-20T07:50:46;101601.34;;;25.42;52.15
61026;BME280;46911;32.650;-16.902;2023-08-20T07:52:47;101599.06;;;25.45;51.62
61026;BME280;46911;32.650;-16.902;2023-08-20T07:54:51;101591.19;;;25.50;51.49
61026;BME280;46911;32.650;-16.902;2023-08-20T07:56:51;101592.34;;;25.56;49.95
61026;BME280;46911;32.650;-16.902;2023-08-20T07:58:52;101589.56;;;25.64;49.32
61026;BME280;46911;32.650;-16.902;2023-08-20T08:00:56;101585.75;;;25.73;47.76
61026;BME280;46911;32.650;-16.902;2023-08-20T08:02:57;101579.91;;;25.77;47.30
61026;BME280;46911;32.650;-16.902;2023-08-20T08:05:00;101579.03;;;25.76;47.14
61026;BME280;46911;32.650;-16.902;2023-08-20T08:07:01;101579.22;;;25.74;46.50
61026;BME280;46911;32.650;-16.902;2023-08-20T08:09:26;101588.47;;;25.73;46.00
61026;BME280;46911;32.650;-16.902;2023-08-20T08:11:29;101608.81;;;25.71;46.28
61026;BME280;46911;32.650;-16.902;2023-08-20T08:13:30;101615.50;;;25.68;45.68
61026;BME280;46911;32.650;-16.902;2023-08-20T08:15:31;101621.28;;;25.65;48.47
61026;BME280;46911;32.650;-16.902;2023-08-20T08:17:34;101618.13;;;25.53;52.92
61026;BME280;46911;32.650;-16.902;2023-08-20T08:19:35;101629.81;;;25.47;59.58
61026;BME280;46911;32.650;-16.902;2023-08-20T08:21:38;101635.41;;;25.54;58.77
61026;BME280;46911;32.650;-16.902;2023-08-20T08:23:39;101625.31;;;25.54;57.94
61026;BME280;46911;32.650;-16.902;2023-08-20T08:25:40;101631.19;;;25.66;58.20
61026;BME280;46911;32.650;-16.902;2023-08-20T08:27:41;101631.63;;;25.78;57.90
61026;BME280;46911;32.650;-16.902;2023-08-20T08:29:42;101634.31;;;26.01;57.25
61026;BME280;46911;32.650;-16.902;2023-08-20T08:31:49;101633.94;;;26.13;56.99
61026;BME280;46911;32.650;-16.902;2023-08-20T08:33:52;101631.13;;;26.21;55.91
61026;BME280;46911;32.650;-16.902;2023-08-20T08:35:56;101623.22;;;26.26;55.86
61026;BME280;46911;32.650;-16.902;2023-08-20T08:37:57;101635.00;;;26.42;55.20
61026;BME280;46911;32.650;-16.902;2023-08-20T08:39:58;101635.09;;;26.48;54.92
61026;BME280;46911;32.650;-16.902;2023-08-20T08:42:03;101624.00;;;26.50;54.58
61026;BME280;46911;32.650;-16.902;2023-08-20T08:44:08;101624.09;;;26.56;54.78
61026;BME280;46911;32.650;-16.902;2023-08-20T08:46:15;101626.91;;;26.63;55.27
61026;BME280;46911;32.650;-16.902;2023-08-20T08:48:19;101631.06;;;26.59;55.56
61026;BME280;46911;32.650;-16.902;2023-08-20T08:50:21;101640.50;;;26.56;55.85
61026;BME280;46911;32.650;-16.902;2023-08-20T08:52:26;101645.78;;;26.58;54.09
61026;BME280;46911;32.650;-16.902;2023-08-20T08:54:27;101634.06;;;26.49;53.30
61026;BME280;46911;32.650;-16.902;2023-08-20T08:56:28;101644.66;;;26.52;53.65
61026;BME280;46911;32.650;-16.902;2023-08-20T08:58:32;101649.25;;;26.52;54.25
61026;BME280;46911;32.650;-16.902;2023-08-20T09:00:33;101653.81;;;26.60;54.25
61026;BME280;46911;32.650;-16.902;2023-08-20T09:02:34;101633.03;;;26.50;53.69
61026;BME280;46911;32.650;-16.902;2023-08-20T09:04:40;101625.75;;;26.57;53.83
61026;BME280;46911;32.650;-16.902;2023-08-20T09:06:55;101622.22;;;26.72;54.25
61026;BME280;46911;32.650;-16.902;2023-08-20T09:09:04;101623.63;;;26.83;53.25
61026;BME280;46911;32.650;-16.902;2023-08-20T09:11:06;101634.75;;;26.81;53.10
61026;BME280;46911;32.650;-16.902;2023-08-20T09:13:07;101628.91;;;26.84;51.80
61026;BME280;46911;32.650;-16.902;2023-08-20T09:15:11;101630.50;;;26.94;50.04
61026;BME280;46911;32.650;-16.902;2023-08-20T09:17:12;101638.41;;;27.18;48.70
61026;BME280;46911;32.650;-16.902;2023-08-20T09:19:16;101658.44;;;27.04;51.27
61026;BME280;46911;32.650;-16.902;2023-08-20T09:21:29;101669.03;;;26.92;53.39
61026;BME280;46911;32.650;-16.902;2023-08-20T09:23:30;101670.44;;;26.88;54.22
61026;BME280;46911;32.650;-16.902;2023-08-20T09:25:31;101672.78;;;26.91;53.77
61026;BME280;46911;32.650;-16.902;2023-08-20T09:27:39;101659.56;;;27.10;54.21
61026;BME280;46911;32.650;-16.902;2023-08-20T09:32:00;101642.28;;;27.09;52.70
61026;BME280;46911;32.650;-16.902;2023-08-20T09:34:02;101652.28;;;27.17;52.27
61026;BME280;46911;32.650;-16.902;2023-08-20T09:36:07;101656.44;;;27.13;51.70
61026;BME280;46911;32.650;-16.902;2023-08-20T09:38:08;101676.66;;;27.12;50.71
61026;BME280;46911;32.650;-16.902;2023-08-20T09:40:10;101683.19;;;26.96;51.62
61026;BME280;46911;32.650;-16.902;2023-08-20T09:42:12;101674.69;;;26.90;52.64
61026;BME280;46911;32.650;-16.902;2023-08-20T09:44:14;101680.06;;;26.84;52.73
61026;BME280;46911;32.650;-16.902;2023-08-20T09:46:19;101696.09;;;26.72;52.53
61026;BME280;46911;32.650;-16.902;2023-08-20T09:48:23;101706.69;;;26.90;52.31
61026;BME280;46911;32.650;-16.902;2023-08-20T09:50:26;101715.47;;;26.85;52.54
61026;BME280;46911;32.650;-16.902;2023-08-20T09:52:39;101711.88;;;26.85;52.72
61026;BME280;46911;32.650;-16.902;2023-08-20T09:55:05;101718.41;;;26.84;53.04
61026;BME280;46911;32.650;-16.902;2023-08-20T09:57:33;101722.84;;;26.85;52.36
61026;BME280;46911;32.650;-16.902;2023-08-20T09:59:40;101708.25;;;26.69;51.92
61026;BME280;46911;32.650;-16.902;2023-08-20T10:01:44;101715.06;;;26.73;51.96
61026;BME280;46911;32.650;-16.902;2023-08-20T10:03:48;101729.34;;;26.84;52.16
61026;BME280;46911;32.650;-16.902;2023-08-20T10:05:50;101726.31;;;26.94;52.33
61026;BME280;46911;32.650;-16.902;2023-08-20T10:07:50;101711.50;;;27.03;55.19
61026;BME280;46911;32.650;-16.902;2023-08-20T10:09:58;101706.69;;;27.05;53.83
61026;BME280;46911;32.650;-16.902;2023-08-20T10:12:01;101721.22;;;27.05;52.85
61026;BME280;46911;32.650;-16.902;2023-08-20T10:14:05;101731.53;;;27.18;50.73
61026;BME280;46911;32.650;-16.902;2023-08-20T10:16:07;101715.94;;;27.19;47.92
61026;BME280;46911;32.650;-16.902;2023-08-20T10:18:08;101736.34;;;27.31;44.00
61026;BME280;46911;32.650;-16.902;2023-08-20T10:20:09;101744.56;;;27.31;43.80
61026;BME280;46911;32.650;-16.902;2023-08-20T10:22:13;101759.94;;;27.32;47.92
61026;BME280;46911;32.650;-16.902;2023-08-20T10:24:17;101760.31;;;27.29;52.25
61026;BME280;46911;32.650;-16.902;2023-08-20T10:26:23;101757.78;;;27.43;53.79
61026;BME280;46911;32.650;-16.902;2023-08-20T10:28:25;101763.97;;;27.36;54.33
61026;BME280;46911;32.650;-16.902;2023-08-20T10:30:30;101764.50;;;27.40;54.97
61026;BME280;46911;32.650;-16.902;2023-08-20T10:32:50;101752.78;;;27.31;54.63
61026;BME280;46911;32.650;-16.902;2023-08-20T10:34:54;101757.19;;;27.32;54.47